This is the latest recevied weather packets stored in our database for station/object DO6WO-10. If no packets are shown the sender has not sent any weather packets the latest 1 day(s).
| Time | Temp. | Humidity | Pressure | Rain* | Wind** | Luminosity | Snow |
|---|---|---|---|---|---|---|---|
| 1778407088 | 22.22° C | 37% | 1016.7 hPa | - | - | - | - |
| 1778404389 | 20.56° C | 38% | 1017.2 hPa | - | - | - | - |
| 1778401689 | 18.33° C | 41% | 1017.6 hPa | - | - | - | - |
| 1778398989 | 17.22° C | 42% | 1018 hPa | - | - | - | - |
| 1778396289 | 15° C | 45% | 1018.3 hPa | - | - | - | - |
| 1778393588 | 13.89° C | 46% | 1018.6 hPa | - | - | - | - |
| 1778390888 | 11.67° C | 47% | 1018.9 hPa | - | - | - | - |
| 1778388188 | 11.67° C | 46% | 1019.2 hPa | - | - | - | - |
| 1778385488 | 11.11° C | 46% | 1019.4 hPa | - | - | - | - |
| 1778382788 | 12.22° C | 45% | 1019.7 hPa | - | - | - | - |
| 1778380088 | 12.22° C | 45% | 1019.8 hPa | - | - | - | - |
| 1778377388 | 12.78° C | 44% | 1020 hPa | - | - | - | - |
| 1778374688 | 12.78° C | 45% | 1020.2 hPa | - | - | - | - |
| 1778371988 | 13.89° C | 43% | 1020 hPa | - | - | - | - |
| 1778369288 | 14.44° C | 42% | 1020.4 hPa | - | - | - | - |
| 1778366588 | 15° C | 41% | 1020.5 hPa | - | - | - | - |
| 1778363888 | 15.56° C | 40% | 1020.6 hPa | - | - | - | - |
| 1778361191 | 17.22° C | 38% | 1020.5 hPa | - | - | - | - |
| 1778358497 | 17.22° C | 38% | 1020.5 hPa | - | - | - | - |
| 1778358491 | 17.22° C | 38% | 1020.5 hPa | - | - | - | - |
| 1778355791 | 18.89° C | 35% | 1020.5 hPa | - | - | - | - |
| 1778353097 | 20° C | - | - | - | - | - | - |
| 1778353091 | 20° C | 34% | 1020.5 hPa | - | - | - | - |
| 1778350393 | 21.67° C | 32% | 1020.1 hPa | - | - | - | - |
| 1778347695 | 22.78° C | - | - | - | - | - | - |
* Rain since midnight (hover to see other rain measurements)
** Current wind speed in m/s (hover to see current wind gust speed)